createdAt,value
2019-05-20T00:00:05.483Z,96.90
2019-05-20T00:02:34.319Z,97.00
2019-05-20T00:05:03.163Z,97.20
2019-05-20T00:07:31.976Z,97.30
2019-05-20T00:10:00.858Z,97.30
2019-05-20T00:12:29.698Z,97.70
2019-05-20T00:14:58.523Z,97.40
2019-05-20T00:17:27.420Z,97.60
2019-05-20T00:19:56.709Z,97.90
2019-05-20T00:22:25.607Z,97.50
2019-05-20T00:24:54.421Z,97.30
2019-05-20T00:27:23.251Z,97.10
2019-05-20T00:29:52.129Z,97.10
2019-05-20T00:32:20.957Z,96.90
2019-05-20T00:34:49.837Z,96.80
2019-05-20T00:37:18.662Z,96.90
2019-05-20T00:39:47.502Z,96.70
2019-05-20T00:42:16.345Z,96.40
2019-05-20T00:44:45.185Z,96.30
2019-05-20T00:47:14.041Z,96.20
2019-05-20T00:49:42.893Z,96.20
2019-05-20T00:52:11.737Z,96.20
2019-05-20T00:54:40.609Z,96.10
2019-05-20T00:57:09.434Z,96.20
2019-05-20T00:59:38.293Z,96.20
2019-05-20T01:02:07.139Z,96.30
2019-05-20T01:04:36.008Z,96.30
2019-05-20T01:07:04.868Z,96.30
2019-05-20T01:09:33.701Z,96.50
2019-05-20T01:12:02.562Z,96.70
2019-05-20T01:14:31.404Z,96.90
2019-05-20T01:17:00.270Z,96.80
2019-05-20T01:19:29.121Z,97.20
2019-05-20T01:21:57.964Z,97.00
2019-05-20T01:24:26.823Z,97.00
2019-05-20T01:26:55.770Z,96.80
2019-05-20T01:29:24.605Z,96.60
2019-05-20T01:31:53.435Z,96.70
2019-05-20T01:34:22.267Z,96.70
2019-05-20T01:36:51.136Z,96.90
2019-05-20T01:39:19.967Z,97.00
2019-05-20T01:41:48.862Z,97.50
2019-05-20T01:44:20.607Z,97.10
2019-05-20T01:46:53.021Z,97.10
2019-05-20T01:49:25.289Z,97.20
2019-05-20T01:51:56.952Z,97.40
2019-05-20T01:54:28.921Z,97.50
2019-05-20T01:57:00.667Z,97.40
2019-05-20T01:59:32.093Z,97.20
2019-05-20T02:02:04.548Z,97.50
2019-05-20T02:04:36.855Z,97.70
2019-05-20T02:07:09.059Z,97.80
2019-05-20T02:09:39.641Z,97.80
2019-05-20T02:12:11.794Z,97.70
2019-05-20T02:14:47.080Z,97.60
2019-05-20T02:17:18.992Z,97.40
2019-05-20T02:19:52.694Z,97.40
2019-05-20T02:22:24.462Z,97.50
2019-05-20T02:25:15.434Z,97.50
2019-05-20T02:27:47.538Z,97.30
2019-05-20T02:30:19.871Z,97.30
2019-05-20T02:32:51.907Z,97.20
2019-05-20T02:35:20.987Z,97.10
2019-05-20T02:37:53.545Z,97.10
2019-05-20T02:40:26.617Z,96.80
2019-05-20T02:42:56.348Z,96.50
2019-05-20T02:45:39.524Z,96.30
2019-05-20T02:48:12.910Z,96.30
2019-05-20T02:50:45.495Z,96.30
2019-05-20T02:53:21.379Z,96.30
2019-05-20T02:55:53.544Z,96.40
2019-05-20T02:58:25.344Z,96.50
2019-05-20T03:00:56.892Z,96.80
2019-05-20T03:03:28.775Z,96.60
2019-05-20T03:06:00.944Z,96.50
2019-05-20T03:08:32.672Z,96.60
2019-05-20T03:11:04.588Z,96.50
2019-05-20T03:13:36.440Z,96.40
2019-05-20T03:16:08.581Z,96.40
2019-05-20T03:18:41.210Z,96.40
2019-05-20T03:21:12.223Z,96.50
2019-05-20T03:23:46.513Z,96.30
2019-05-20T03:26:17.941Z,96.40
2019-05-20T03:28:51.881Z,96.60
2019-05-20T03:31:22.762Z,96.80
2019-05-20T03:33:54.771Z,96.90
2019-05-20T03:36:27.758Z,96.80
2019-05-20T03:38:58.575Z,96.90
2019-05-20T03:41:32.556Z,97.10
2019-05-20T03:44:04.743Z,96.90
2019-05-20T03:46:35.620Z,96.60
2019-05-20T03:49:07.858Z,97.00
2019-05-20T03:51:38.133Z,96.50
2019-05-20T03:54:11.166Z,96.60
2019-05-20T03:56:42.765Z,96.90
2019-05-20T03:59:14.929Z,96.60
2019-05-20T04:01:47.241Z,96.70
2019-05-20T04:04:19.289Z,96.40
2019-05-20T04:06:51.813Z,96.50
2019-05-20T04:09:24.156Z,96.60
2019-05-20T04:11:55.954Z,96.60
2019-05-20T04:14:28.402Z,96.70
2019-05-20T04:17:00.397Z,96.70
2019-05-20T04:19:32.820Z,96.80
2019-05-20T04:22:04.489Z,96.60
2019-05-20T04:24:36.467Z,96.80
2019-05-20T04:27:08.081Z,96.90
2019-05-20T04:29:40.486Z,96.80
2019-05-20T04:32:14.049Z,96.90
2019-05-20T04:34:45.968Z,96.80
2019-05-20T04:37:18.557Z,96.80
2019-05-20T04:39:47.335Z,97.10
2019-05-20T04:42:16.206Z,97.20
2019-05-20T04:44:45.018Z,97.00
2019-05-20T04:47:13.898Z,97.00
2019-05-20T04:49:42.735Z,96.80
2019-05-20T04:52:11.589Z,96.70
2019-05-20T04:54:40.449Z,96.60
2019-05-20T04:57:09.265Z,96.80
2019-05-20T04:59:38.159Z,96.90
2019-05-20T05:02:06.988Z,96.70
2019-05-20T05:04:35.825Z,96.80
2019-05-20T05:07:04.695Z,96.70
2019-05-20T05:09:33.521Z,96.50
2019-05-20T05:12:02.429Z,96.00
2019-05-20T05:14:31.259Z,95.90
2019-05-20T05:17:00.078Z,96.00
2019-05-20T05:19:29.178Z,95.90
2019-05-20T05:21:59.973Z,95.80
2019-05-20T05:24:28.799Z,95.80
2019-05-20T05:26:57.648Z,95.80
2019-05-20T05:29:26.635Z,96.00
2019-05-20T05:31:55.459Z,95.70
2019-05-20T05:34:24.302Z,95.70
2019-05-20T05:36:53.188Z,95.60
2019-05-20T05:39:22.033Z,95.90
2019-05-20T05:41:50.903Z,95.60
2019-05-20T05:44:19.745Z,95.50
2019-05-20T05:46:48.624Z,95.70
2019-05-20T05:49:17.444Z,95.60
2019-05-20T05:51:46.331Z,95.60
2019-05-20T05:54:15.174Z,95.70
2019-05-20T05:56:44.052Z,96.10
2019-05-20T05:59:12.893Z,96.00
2019-05-20T06:01:41.713Z,96.00
2019-05-20T06:04:10.607Z,96.20
2019-05-20T06:06:39.435Z,96.40
2019-05-20T06:09:08.450Z,96.20
2019-05-20T06:11:37.297Z,96.20
2019-05-20T06:14:06.165Z,96.40
2019-05-20T06:16:36.952Z,96.30
2019-05-20T06:19:05.490Z,95.90
2019-05-20T06:21:34.350Z,95.50
2019-05-20T06:24:03.212Z,95.60
2019-05-20T06:26:32.049Z,95.70
2019-05-20T06:29:03.062Z,95.70
2019-05-20T06:31:31.411Z,96.00
2019-05-20T06:34:00.271Z,95.90
2019-05-20T06:36:29.140Z,95.90
2019-05-20T06:39:06.477Z,95.70
2019-05-20T06:41:35.349Z,95.90
2019-05-20T06:44:04.198Z,96.10
2019-05-20T06:46:33.075Z,96.20
2019-05-20T06:49:01.913Z,95.70
2019-05-20T06:51:30.907Z,95.50
2019-05-20T06:53:59.756Z,95.80
2019-05-20T06:56:28.591Z,95.70
2019-05-20T06:58:57.463Z,95.00
2019-05-20T07:01:26.296Z,94.90
2019-05-20T07:03:55.187Z,94.90
2019-05-20T07:06:24.061Z,94.00
2019-05-20T07:08:52.880Z,94.30
2019-05-20T07:11:21.781Z,94.00
2019-05-20T07:13:50.611Z,94.40
2019-05-20T07:16:19.512Z,94.20
2019-05-20T07:18:48.329Z,94.60
2019-05-20T07:21:17.167Z,94.70
2019-05-20T07:23:46.152Z,94.50
2019-05-20T07:26:15.035Z,94.40
2019-05-20T07:28:43.877Z,94.30
2019-05-20T07:31:12.840Z,94.20
2019-05-20T07:33:41.675Z,94.40
2019-05-20T07:36:10.551Z,94.10
2019-05-20T07:38:39.418Z,93.80
2019-05-20T07:41:08.258Z,94.00
2019-05-20T07:43:37.132Z,93.10
2019-05-20T07:46:06.965Z,93.10
2019-05-20T07:48:36.172Z,94.00
2019-05-20T07:51:05.299Z,94.50
2019-05-20T07:53:34.934Z,94.60
2019-05-20T07:56:09.817Z,94.80
2019-05-20T07:58:41.820Z,94.40
2019-05-20T08:01:11.776Z,94.50
2019-05-20T08:03:40.602Z,94.50
2019-05-20T08:06:09.539Z,94.50
2019-05-20T08:08:38.397Z,94.10
2019-05-20T08:11:07.450Z,93.90
2019-05-20T08:13:36.343Z,93.90
2019-05-20T08:16:06.066Z,93.60
2019-05-20T08:18:34.920Z,93.20
2019-05-20T08:21:03.774Z,92.70
2019-05-20T08:23:32.658Z,92.50
2019-05-20T08:26:01.518Z,92.80
2019-05-20T08:28:30.469Z,92.70
2019-05-20T08:30:59.349Z,92.10
2019-05-20T08:33:28.251Z,91.40
2019-05-20T08:35:57.092Z,91.10
2019-05-20T08:38:26.014Z,90.80
2019-05-20T08:40:55.472Z,90.10
2019-05-20T08:43:25.232Z,89.80
2019-05-20T08:45:54.119Z,88.50
2019-05-20T08:48:23.001Z,87.90
2019-05-20T08:50:51.954Z,88.20
2019-05-20T08:53:20.770Z,89.50
2019-05-20T08:55:49.676Z,90.50
2019-05-20T08:58:18.594Z,90.70
2019-05-20T09:00:47.453Z,91.10
2019-05-20T09:03:16.377Z,91.40
2019-05-20T09:05:45.249Z,91.90
2019-05-20T09:08:14.115Z,92.00
2019-05-20T09:10:43.035Z,92.20
2019-05-20T09:13:11.898Z,92.30
2019-05-20T09:15:40.844Z,92.60
2019-05-20T09:18:09.744Z,91.90
2019-05-20T09:20:38.631Z,92.20
2019-05-20T09:23:07.583Z,92.30
2019-05-20T09:25:36.459Z,92.10
2019-05-20T09:28:05.382Z,92.10
2019-05-20T09:30:34.227Z,92.00
2019-05-20T09:33:03.807Z,91.90
2019-05-20T09:35:32.725Z,91.80
2019-05-20T09:38:15.965Z,91.50
2019-05-20T09:40:40.855Z,90.50
2019-05-20T09:43:09.709Z,90.30
2019-05-20T09:45:38.575Z,90.20
2019-05-20T09:48:07.692Z,90.00
2019-05-20T09:50:36.545Z,90.20
2019-05-20T09:53:08.424Z,90.00
2019-05-20T09:55:38.483Z,88.70
2019-05-20T09:58:07.798Z,90.40
2019-05-20T10:00:38.699Z,90.60
2019-05-20T10:03:08.002Z,90.60
2019-05-20T10:05:37.566Z,91.00
2019-05-20T10:08:07.150Z,91.30
2019-05-20T10:10:36.298Z,91.70
2019-05-20T10:13:06.226Z,92.10
2019-05-20T10:15:38.113Z,92.70
2019-05-20T10:18:07.102Z,93.00
2019-05-20T10:20:39.168Z,93.40
2019-05-20T10:23:08.539Z,93.60
2019-05-20T10:25:37.432Z,93.90
2019-05-20T10:28:06.288Z,94.20
2019-05-20T10:30:36.026Z,94.20
2019-05-20T10:33:09.068Z,94.50
2019-05-20T10:35:35.397Z,94.50
2019-05-20T10:38:04.317Z,94.50
2019-05-20T10:40:33.219Z,94.60
2019-05-20T10:43:02.094Z,94.30
2019-05-20T10:45:30.983Z,94.00
2019-05-20T10:47:59.906Z,94.30
2019-05-20T10:50:28.805Z,93.80
2019-05-20T10:52:57.815Z,93.90
2019-05-20T10:55:26.893Z,94.00
2019-05-20T10:57:55.789Z,94.30
2019-05-20T11:00:24.907Z,94.50
2019-05-20T11:02:53.839Z,94.70
2019-05-20T11:05:22.738Z,94.60
2019-05-20T11:07:51.851Z,94.60
2019-05-20T11:10:21.241Z,94.70
2019-05-20T11:12:50.179Z,94.80
2019-05-20T11:15:19.165Z,94.40
2019-05-20T11:17:48.027Z,94.30
2019-05-20T11:20:17.040Z,94.40
2019-05-20T11:22:45.886Z,93.90
2019-05-20T11:25:15.201Z,93.60
2019-05-20T11:27:44.075Z,93.60
2019-05-20T11:30:13.799Z,93.30
2019-05-20T11:32:42.723Z,93.40
2019-05-20T11:35:11.898Z,93.10
2019-05-20T11:37:40.796Z,93.00
2019-05-20T11:40:11.986Z,92.60
2019-05-20T11:42:41.331Z,93.00
2019-05-20T11:45:10.695Z,93.00
2019-05-20T11:47:39.550Z,93.00
2019-05-20T11:50:09.802Z,92.80
2019-05-20T11:52:38.643Z,93.00
2019-05-20T11:55:08.909Z,93.10
2019-05-20T11:57:37.844Z,93.00
2019-05-20T12:00:08.083Z,93.40
2019-05-20T12:02:36.940Z,93.40
2019-05-20T12:05:07.403Z,93.30
2019-05-20T12:07:36.297Z,93.10
2019-05-20T12:10:09.899Z,93.00
2019-05-20T12:12:38.761Z,93.00
2019-05-20T12:15:09.725Z,92.80
2019-05-20T12:17:38.621Z,92.80
2019-05-20T12:20:10.320Z,92.50
2019-05-20T12:22:38.831Z,92.60
2019-05-20T12:25:08.014Z,92.70
2019-05-20T12:27:36.847Z,92.80
2019-05-20T12:30:08.061Z,92.90
2019-05-20T12:32:36.900Z,93.20
2019-05-20T12:35:07.840Z,93.50
2019-05-20T12:37:36.710Z,93.40
2019-05-20T12:40:08.571Z,92.90
2019-05-20T12:42:37.022Z,92.40
2019-05-20T12:45:10.296Z,92.40
2019-05-20T12:47:39.144Z,92.00
2019-05-20T12:50:08.892Z,91.10
2019-05-20T12:52:37.746Z,90.30
2019-05-20T12:55:09.539Z,89.70
2019-05-20T12:57:38.259Z,86.70
2019-05-20T13:00:08.698Z,86.30
2019-05-20T13:02:37.568Z,86.50
2019-05-20T13:05:07.641Z,86.00
2019-05-20T13:07:36.589Z,86.00
2019-05-20T13:10:28.817Z,86.30
2019-05-20T13:12:45.259Z,84.70
2019-05-20T13:15:14.476Z,83.90
2019-05-20T13:17:45.030Z,83.20
2019-05-20T13:20:14.007Z,84.60
2019-05-20T13:22:42.868Z,83.20
2019-05-20T13:25:12.099Z,83.70
2019-05-20T13:27:40.978Z,83.20
2019-05-20T13:30:10.942Z,82.60
2019-05-20T13:32:40.354Z,83.50
2019-05-20T13:35:09.510Z,83.80
2019-05-20T13:37:38.449Z,85.20
2019-05-20T13:40:08.129Z,83.10
2019-05-20T13:42:37.228Z,81.80
2019-05-20T13:45:09.329Z,82.00
2019-05-20T13:47:38.213Z,81.70
2019-05-20T13:50:08.746Z,82.20
2019-05-20T13:52:37.650Z,82.30
2019-05-20T13:55:07.679Z,82.10
2019-05-20T13:57:36.571Z,81.30
2019-05-20T14:00:07.041Z,82.70
2019-05-20T14:02:35.964Z,80.80
2019-05-20T14:05:05.755Z,80.90
2019-05-20T14:07:34.659Z,81.80
2019-05-20T14:10:04.615Z,81.30
2019-05-20T14:12:33.469Z,82.20
2019-05-20T14:15:02.332Z,80.60
2019-05-20T14:17:31.161Z,80.70
2019-05-20T14:20:00.057Z,80.40
2019-05-20T14:22:28.927Z,81.50
2019-05-20T14:24:57.765Z,82.10
2019-05-20T14:27:26.644Z,81.00
2019-05-20T14:29:55.484Z,82.00
2019-05-20T14:32:24.425Z,81.80
2019-05-20T14:34:53.293Z,82.30
2019-05-20T14:37:22.128Z,82.00
2019-05-20T14:39:51.026Z,81.90
2019-05-20T14:42:19.864Z,80.70
2019-05-20T14:44:48.747Z,79.90
2019-05-20T14:47:17.562Z,81.70
2019-05-20T14:49:46.451Z,81.20
2019-05-20T14:52:15.308Z,82.10
2019-05-20T14:54:44.148Z,82.90
2019-05-20T14:57:13.027Z,81.30
2019-05-20T14:59:41.877Z,81.60
2019-05-20T15:02:10.773Z,82.10
2019-05-20T15:04:39.629Z,82.30
2019-05-20T15:07:08.527Z,82.30
2019-05-20T15:09:37.417Z,82.60
2019-05-20T15:12:06.252Z,83.70
2019-05-20T15:14:35.154Z,83.70
2019-05-20T15:17:04.006Z,83.40
2019-05-20T15:19:32.862Z,84.20
2019-05-20T15:22:01.927Z,84.50
2019-05-20T15:24:30.814Z,84.80
2019-05-20T15:26:59.903Z,85.20
2019-05-20T15:29:28.797Z,86.00
2019-05-20T15:31:57.658Z,86.30
2019-05-20T15:34:26.556Z,87.30
2019-05-20T15:36:55.479Z,86.30
2019-05-20T15:39:24.377Z,86.80
2019-05-20T15:41:53.309Z,87.20
2019-05-20T15:44:22.236Z,86.50
2019-05-20T15:46:51.098Z,86.90
2019-05-20T15:49:19.965Z,87.50
2019-05-20T15:51:48.864Z,87.00
2019-05-20T15:54:17.745Z,87.20
2019-05-20T15:56:46.557Z,87.70
2019-05-20T15:59:15.412Z,87.10
2019-05-20T16:01:44.269Z,88.00
2019-05-20T16:04:13.147Z,88.40
2019-05-20T16:06:42.025Z,89.00
2019-05-20T16:09:10.878Z,89.20
2019-05-20T16:11:39.823Z,90.00
2019-05-20T16:14:08.673Z,90.20
2019-05-20T16:16:37.552Z,90.30
2019-05-20T16:19:06.440Z,90.30
2019-05-20T16:21:35.295Z,90.60
2019-05-20T16:24:06.367Z,90.60
2019-05-20T16:26:35.221Z,90.60
2019-05-20T16:29:04.114Z,90.70
2019-05-20T16:31:36.172Z,90.70
2019-05-20T16:34:08.157Z,90.80
2019-05-20T16:36:39.365Z,90.90
2019-05-20T16:39:09.542Z,90.70
2019-05-20T16:41:42.886Z,91.00
2019-05-20T16:44:16.601Z,91.00
2019-05-20T16:46:48.834Z,91.00
2019-05-20T16:49:17.139Z,91.10
2019-05-20T16:51:46.445Z,91.00
2019-05-20T16:54:15.216Z,91.30
2019-05-20T16:56:44.090Z,91.60
2019-05-20T16:59:12.940Z,91.80
2019-05-20T17:01:46.139Z,91.80
2019-05-20T17:04:12.302Z,92.00
2019-05-20T17:06:41.126Z,91.50
2019-05-20T17:09:10.238Z,91.40
2019-05-20T17:11:39.064Z,91.50
2019-05-20T17:14:10.569Z,91.80
2019-05-20T17:16:38.470Z,91.90
2019-05-20T17:19:07.297Z,91.90
2019-05-20T17:21:36.180Z,92.20
2019-05-20T17:24:05.003Z,91.70
2019-05-20T17:26:33.841Z,91.80
2019-05-20T17:29:02.691Z,92.00
2019-05-20T17:31:31.524Z,91.80
2019-05-20T17:34:00.408Z,91.70
2019-05-20T17:36:29.336Z,91.70
2019-05-20T17:38:58.163Z,91.80
2019-05-20T17:41:27.187Z,91.40
2019-05-20T17:43:56.121Z,91.80
2019-05-20T17:46:25.090Z,91.70
2019-05-20T17:48:53.931Z,92.20
2019-05-20T17:51:22.759Z,91.90
2019-05-20T17:53:51.639Z,91.80
2019-05-20T17:56:20.463Z,91.70
2019-05-20T17:58:49.355Z,91.80
2019-05-20T18:01:18.187Z,91.80
2019-05-20T18:03:47.024Z,91.90
2019-05-20T18:06:15.894Z,91.80
2019-05-20T18:08:46.305Z,92.00
2019-05-20T18:11:19.297Z,92.30
2019-05-20T18:13:53.095Z,92.40
2019-05-20T18:16:22.139Z,92.50
2019-05-20T18:18:56.413Z,92.70
2019-05-20T18:21:29.807Z,92.60
2019-05-20T18:24:01.978Z,92.80
2019-05-20T18:26:32.944Z,92.90
2019-05-20T18:29:01.735Z,92.70
2019-05-20T18:31:34.078Z,92.80
2019-05-20T18:34:05.744Z,93.10
2019-05-20T18:36:57.764Z,93.20
2019-05-20T18:39:26.621Z,93.40
2019-05-20T18:41:58.925Z,93.80
2019-05-20T18:44:31.729Z,93.80
2019-05-20T18:47:04.106Z,94.00
2019-05-20T18:49:36.697Z,93.90
2019-05-20T18:52:09.419Z,93.90
2019-05-20T18:54:41.432Z,94.10
2019-05-20T18:57:10.272Z,94.10
2019-05-20T18:59:39.115Z,94.20
2019-05-20T19:02:07.974Z,94.20
2019-05-20T19:04:36.844Z,94.30
2019-05-20T19:07:05.743Z,94.40
2019-05-20T19:09:34.581Z,94.40
2019-05-20T19:12:03.514Z,94.40
2019-05-20T19:14:32.391Z,94.60
2019-05-20T19:17:01.329Z,94.90
2019-05-20T19:19:30.220Z,94.90
2019-05-20T19:21:59.050Z,94.70
2019-05-20T19:24:27.873Z,94.80
2019-05-20T19:26:56.763Z,94.80
2019-05-20T19:29:25.576Z,95.00
2019-05-20T19:32:01.783Z,95.40
2019-05-20T19:34:24.943Z,95.30
2019-05-20T19:36:53.827Z,95.20
2019-05-20T19:39:22.664Z,95.10
2019-05-20T19:41:51.518Z,95.40
2019-05-20T19:44:20.388Z,95.90
2019-05-20T19:46:49.231Z,95.20
2019-05-20T19:49:18.119Z,95.40
2019-05-20T19:51:46.946Z,95.70
2019-05-20T19:54:15.775Z,95.90
2019-05-20T19:56:44.661Z,96.10
2019-05-20T19:59:13.472Z,96.20
2019-05-20T20:01:42.352Z,96.20
2019-05-20T20:04:11.187Z,96.20
2019-05-20T20:06:40.016Z,96.00
2019-05-20T20:09:08.982Z,96.00
2019-05-20T20:11:37.813Z,96.10
2019-05-20T20:14:06.677Z,95.80
2019-05-20T20:16:35.515Z,96.00
2019-05-20T20:19:04.442Z,96.00
2019-05-20T20:21:33.307Z,96.00
2019-05-20T20:24:02.158Z,95.80
2019-05-20T20:26:31.039Z,96.10
2019-05-20T20:28:59.886Z,96.10
2019-05-20T20:31:28.749Z,96.20
2019-05-20T20:33:57.606Z,96.20
2019-05-20T20:36:26.458Z,96.50
2019-05-20T20:38:55.325Z,96.30
2019-05-20T20:41:24.241Z,96.10
2019-05-20T20:43:53.060Z,96.20
2019-05-20T20:46:21.937Z,96.10
2019-05-20T20:48:50.777Z,96.20
2019-05-20T20:51:19.667Z,96.20
2019-05-20T20:53:48.503Z,96.30
2019-05-20T20:56:25.186Z,96.30
2019-05-20T20:58:47.929Z,96.10
2019-05-20T21:01:16.775Z,96.10
2019-05-20T21:03:45.633Z,96.30
2019-05-20T21:06:14.453Z,96.50
2019-05-20T21:08:43.307Z,96.80
2019-05-20T21:11:12.194Z,96.30
2019-05-20T21:13:41.008Z,96.10
2019-05-20T21:16:09.913Z,96.10
2019-05-20T21:18:38.759Z,96.20
2019-05-20T21:21:07.667Z,96.30
2019-05-20T21:23:38.123Z,96.30
2019-05-20T21:26:07.180Z,96.60
2019-05-20T21:28:36.038Z,96.80
2019-05-20T21:31:04.903Z,96.70
2019-05-20T21:33:33.721Z,96.80
2019-05-20T21:36:02.600Z,96.90
2019-05-20T21:38:31.456Z,97.00
2019-05-20T21:41:00.293Z,97.10
2019-05-20T21:43:29.165Z,97.70
2019-05-20T21:45:57.995Z,97.40
2019-05-20T21:48:26.893Z,97.40
2019-05-20T21:50:55.742Z,97.60
2019-05-20T21:53:24.568Z,97.70
2019-05-20T21:55:53.449Z,97.60
2019-05-20T21:58:22.266Z,97.60
2019-05-20T22:00:55.050Z,97.60
2019-05-20T22:03:25.254Z,97.50
2019-05-20T22:05:54.422Z,97.30
2019-05-20T22:08:23.284Z,97.00
2019-05-20T22:10:52.201Z,96.80
2019-05-20T22:13:21.110Z,96.20
2019-05-20T22:15:49.913Z,96.00
2019-05-20T22:18:18.746Z,96.10
2019-05-20T22:20:47.607Z,95.90
2019-05-20T22:23:29.936Z,96.00
2019-05-20T22:25:57.980Z,96.30
2019-05-20T22:28:26.926Z,96.40
2019-05-20T22:30:55.782Z,96.70
2019-05-20T22:33:38.859Z,96.90
2019-05-20T22:35:55.117Z,96.70
2019-05-20T22:38:23.984Z,96.80
2019-05-20T22:40:52.819Z,96.70
2019-05-20T22:43:21.688Z,96.80
2019-05-20T22:45:50.529Z,97.00
2019-05-20T22:48:19.357Z,97.40
2019-05-20T22:50:48.906Z,97.40
2019-05-20T22:53:17.857Z,97.50
2019-05-20T22:55:46.721Z,97.30
2019-05-20T22:58:16.244Z,97.10
2019-05-20T23:00:45.071Z,97.10
2019-05-20T23:03:13.950Z,97.10
2019-05-20T23:05:42.799Z,97.30
2019-05-20T23:08:11.652Z,97.40
2019-05-20T23:10:40.483Z,97.60
2019-05-20T23:13:09.308Z,97.50
2019-05-20T23:15:38.176Z,97.50
2019-05-20T23:18:07.016Z,97.60
2019-05-20T23:20:35.896Z,97.60
2019-05-20T23:23:04.750Z,97.50
2019-05-20T23:25:33.561Z,97.60
2019-05-20T23:28:02.420Z,97.60
2019-05-20T23:30:31.256Z,97.60
2019-05-20T23:33:00.162Z,97.60
2019-05-20T23:35:29.015Z,97.70
2019-05-20T23:37:58.040Z,97.80
2019-05-20T23:40:26.918Z,98.00
2019-05-20T23:42:55.749Z,97.70
2019-05-20T23:45:24.624Z,97.70
2019-05-20T23:47:53.451Z,97.70
2019-05-20T23:50:22.269Z,97.50
2019-05-20T23:52:51.145Z,97.60
2019-05-20T23:55:20.017Z,97.50
2019-05-20T23:57:48.897Z,97.00
